sensor_id;sensor_type;location;lat;lon;timestamp;P1;durP1;ratioP1;P2;durP2;ratioP2
59587;SDS011;45412;54.472;18.464;2024-01-06T00:02:16;23.80;;;8.70;;
59587;SDS011;45412;54.472;18.464;2024-01-06T00:05:04;22.40;;;8.60;;
59587;SDS011;45412;54.472;18.464;2024-01-06T00:07:53;25.40;;;9.00;;
59587;SDS011;45412;54.472;18.464;2024-01-06T00:10:49;19.10;;;6.90;;
59587;SDS011;45412;54.472;18.464;2024-01-06T00:13:36;24.20;;;7.10;;
59587;SDS011;45412;54.472;18.464;2024-01-06T00:16:24;21.10;;;8.10;;
59587;SDS011;45412;54.472;18.464;2024-01-06T00:19:16;21.50;;;7.20;;
59587;SDS011;45412;54.472;18.464;2024-01-06T00:22:05;25.40;;;8.20;;
59587;SDS011;45412;54.472;18.464;2024-01-06T00:24:52;26.00;;;8.50;;
59587;SDS011;45412;54.472;18.464;2024-01-06T00:27:40;17.50;;;5.70;;
59587;SDS011;45412;54.472;18.464;2024-01-06T00:30:28;16.40;;;5.60;;
59587;SDS011;45412;54.472;18.464;2024-01-06T00:33:16;12.50;;;4.30;;
59587;SDS011;45412;54.472;18.464;2024-01-06T00:36:04;15.30;;;5.10;;
59587;SDS011;45412;54.472;18.464;2024-01-06T00:38:54;9.80;;;3.60;;
59587;SDS011;45412;54.472;18.464;2024-01-06T00:41:43;12.40;;;4.00;;
59587;SDS011;45412;54.472;18.464;2024-01-06T00:44:30;12.80;;;4.10;;
59587;SDS011;45412;54.472;18.464;2024-01-06T00:47:18;15.60;;;3.80;;
59587;SDS011;45412;54.472;18.464;2024-01-06T00:50:06;14.50;;;4.80;;
59587;SDS011;45412;54.472;18.464;2024-01-06T00:52:55;15.90;;;5.30;;
59587;SDS011;45412;54.472;18.464;2024-01-06T00:55:43;15.10;;;5.10;;
59587;SDS011;45412;54.472;18.464;2024-01-06T00:58:31;17.40;;;4.90;;
59587;SDS011;45412;54.472;18.464;2024-01-06T01:01:19;14.90;;;5.30;;
59587;SDS011;45412;54.472;18.464;2024-01-06T01:04:07;16.60;;;4.90;;
59587;SDS011;45412;54.472;18.464;2024-01-06T01:06:55;15.40;;;5.10;;
59587;SDS011;45412;54.472;18.464;2024-01-06T01:09:45;20.10;;;5.30;;
59587;SDS011;45412;54.472;18.464;2024-01-06T01:12:32;15.70;;;4.70;;
59587;SDS011;45412;54.472;18.464;2024-01-06T01:15:20;15.40;;;4.90;;
59587;SDS011;45412;54.472;18.464;2024-01-06T01:18:08;13.20;;;4.00;;
59587;SDS011;45412;54.472;18.464;2024-01-06T01:20:56;15.30;;;4.40;;
59587;SDS011;45412;54.472;18.464;2024-01-06T01:23:44;16.00;;;4.30;;
59587;SDS011;45412;54.472;18.464;2024-01-06T01:26:32;13.90;;;4.40;;
59587;SDS011;45412;54.472;18.464;2024-01-06T01:29:19;15.70;;;4.50;;
59587;SDS011;45412;54.472;18.464;2024-01-06T01:32:07;16.00;;;4.80;;
59587;SDS011;45412;54.472;18.464;2024-01-06T01:34:55;20.90;;;5.80;;
59587;SDS011;45412;54.472;18.464;2024-01-06T01:37:43;17.90;;;5.90;;
59587;SDS011;45412;54.472;18.464;2024-01-06T01:40:31;16.10;;;6.20;;
59587;SDS011;45412;54.472;18.464;2024-01-06T01:43:19;16.10;;;6.10;;
59587;SDS011;45412;54.472;18.464;2024-01-06T01:46:07;20.70;;;7.80;;
59587;SDS011;45412;54.472;18.464;2024-01-06T01:48:55;18.80;;;7.90;;
59587;SDS011;45412;54.472;18.464;2024-01-06T01:51:44;20.60;;;8.30;;
59587;SDS011;45412;54.472;18.464;2024-01-06T01:54:32;18.50;;;7.80;;
59587;SDS011;45412;54.472;18.464;2024-01-06T01:57:20;17.40;;;5.90;;
59587;SDS011;45412;54.472;18.464;2024-01-06T02:00:12;16.40;;;6.00;;
59587;SDS011;45412;54.472;18.464;2024-01-06T02:03:00;16.60;;;6.00;;
59587;SDS011;45412;54.472;18.464;2024-01-06T02:05:50;17.40;;;5.70;;
59587;SDS011;45412;54.472;18.464;2024-01-06T02:08:38;21.20;;;6.80;;
59587;SDS011;45412;54.472;18.464;2024-01-06T02:11:26;17.70;;;7.10;;
59587;SDS011;45412;54.472;18.464;2024-01-06T02:14:13;15.90;;;6.20;;
59587;SDS011;45412;54.472;18.464;2024-01-06T02:17:02;18.30;;;6.40;;
59587;SDS011;45412;54.472;18.464;2024-01-06T02:19:49;15.00;;;5.80;;
59587;SDS011;45412;54.472;18.464;2024-01-06T02:22:37;14.70;;;6.00;;
59587;SDS011;45412;54.472;18.464;2024-01-06T02:25:25;15.90;;;5.30;;
59587;SDS011;45412;54.472;18.464;2024-01-06T02:28:13;14.40;;;6.00;;
59587;SDS011;45412;54.472;18.464;2024-01-06T02:31:01;17.70;;;6.20;;
59587;SDS011;45412;54.472;18.464;2024-01-06T02:33:48;20.30;;;6.30;;
59587;SDS011;45412;54.472;18.464;2024-01-06T02:36:36;17.80;;;7.30;;
59587;SDS011;45412;54.472;18.464;2024-01-06T02:39:24;15.50;;;6.30;;
59587;SDS011;45412;54.472;18.464;2024-01-06T02:42:12;16.20;;;6.80;;
59587;SDS011;45412;54.472;18.464;2024-01-06T02:44:59;16.40;;;6.40;;
59587;SDS011;45412;54.472;18.464;2024-01-06T02:47:47;16.00;;;5.40;;
59587;SDS011;45412;54.472;18.464;2024-01-06T02:50:35;14.70;;;5.40;;
59587;SDS011;45412;54.472;18.464;2024-01-06T02:53:23;13.70;;;4.50;;
59587;SDS011;45412;54.472;18.464;2024-01-06T02:56:11;11.80;;;3.50;;
59587;SDS011;45412;54.472;18.464;2024-01-06T02:58:59;8.60;;;3.00;;
59587;SDS011;45412;54.472;18.464;2024-01-06T03:01:47;10.80;;;3.60;;
59587;SDS011;45412;54.472;18.464;2024-01-06T03:04:35;13.50;;;4.80;;
59587;SDS011;45412;54.472;18.464;2024-01-06T03:07:22;14.20;;;5.70;;
59587;SDS011;45412;54.472;18.464;2024-01-06T03:10:10;16.70;;;5.50;;
59587;SDS011;45412;54.472;18.464;2024-01-06T03:12:58;16.10;;;5.10;;
59587;SDS011;45412;54.472;18.464;2024-01-06T03:15:45;19.90;;;6.40;;
59587;SDS011;45412;54.472;18.464;2024-01-06T03:18:33;13.50;;;5.40;;
59587;SDS011;45412;54.472;18.464;2024-01-06T03:21:22;17.00;;;5.70;;
59587;SDS011;45412;54.472;18.464;2024-01-06T03:24:09;15.20;;;5.40;;
59587;SDS011;45412;54.472;18.464;2024-01-06T03:26:57;17.50;;;6.00;;
59587;SDS011;45412;54.472;18.464;2024-01-06T03:29:45;13.00;;;4.60;;
59587;SDS011;45412;54.472;18.464;2024-01-06T03:32:33;12.30;;;5.00;;
59587;SDS011;45412;54.472;18.464;2024-01-06T03:35:21;14.00;;;5.10;;
59587;SDS011;45412;54.472;18.464;2024-01-06T03:38:08;14.80;;;4.50;;
59587;SDS011;45412;54.472;18.464;2024-01-06T03:40:56;13.00;;;4.80;;
59587;SDS011;45412;54.472;18.464;2024-01-06T03:43:43;13.60;;;5.00;;
59587;SDS011;45412;54.472;18.464;2024-01-06T03:46:34;12.50;;;4.30;;
59587;SDS011;45412;54.472;18.464;2024-01-06T03:49:24;11.60;;;3.00;;
59587;SDS011;45412;54.472;18.464;2024-01-06T03:52:11;11.60;;;3.30;;
59587;SDS011;45412;54.472;18.464;2024-01-06T03:54:59;9.20;;;2.40;;
59587;SDS011;45412;54.472;18.464;2024-01-06T03:57:48;9.30;;;2.60;;
59587;SDS011;45412;54.472;18.464;2024-01-06T04:00:35;8.50;;;2.50;;
59587;SDS011;45412;54.472;18.464;2024-01-06T04:03:23;11.00;;;2.70;;
59587;SDS011;45412;54.472;18.464;2024-01-06T04:06:11;9.20;;;3.00;;
59587;SDS011;45412;54.472;18.464;2024-01-06T04:09:00;9.20;;;2.50;;
59587;SDS011;45412;54.472;18.464;2024-01-06T04:11:49;7.70;;;2.40;;
59587;SDS011;45412;54.472;18.464;2024-01-06T04:14:36;8.80;;;2.70;;
59587;SDS011;45412;54.472;18.464;2024-01-06T04:17:24;7.20;;;2.20;;
59587;SDS011;45412;54.472;18.464;2024-01-06T04:20:14;9.60;;;2.70;;
59587;SDS011;45412;54.472;18.464;2024-01-06T04:23:02;9.60;;;2.20;;
59587;SDS011;45412;54.472;18.464;2024-01-06T04:25:53;8.60;;;2.10;;
59587;SDS011;45412;54.472;18.464;2024-01-06T04:28:40;6.60;;;1.90;;
59587;SDS011;45412;54.472;18.464;2024-01-06T04:31:28;7.70;;;1.80;;
59587;SDS011;45412;54.472;18.464;2024-01-06T04:34:16;8.90;;;2.00;;
59587;SDS011;45412;54.472;18.464;2024-01-06T04:37:05;5.10;;;1.20;;
59587;SDS011;45412;54.472;18.464;2024-01-06T04:39:53;7.60;;;2.00;;
59587;SDS011;45412;54.472;18.464;2024-01-06T04:42:41;7.50;;;2.00;;
59587;SDS011;45412;54.472;18.464;2024-01-06T04:45:29;6.20;;;1.90;;
59587;SDS011;45412;54.472;18.464;2024-01-06T04:48:17;5.70;;;1.40;;
59587;SDS011;45412;54.472;18.464;2024-01-06T04:51:05;5.20;;;1.30;;
59587;SDS011;45412;54.472;18.464;2024-01-06T04:53:53;5.20;;;1.40;;
59587;SDS011;45412;54.472;18.464;2024-01-06T04:56:41;7.20;;;1.80;;
59587;SDS011;45412;54.472;18.464;2024-01-06T04:59:28;5.60;;;1.50;;
59587;SDS011;45412;54.472;18.464;2024-01-06T05:02:16;8.30;;;1.50;;
59587;SDS011;45412;54.472;18.464;2024-01-06T05:05:04;6.20;;;1.70;;
59587;SDS011;45412;54.472;18.464;2024-01-06T05:07:52;5.80;;;1.50;;
59587;SDS011;45412;54.472;18.464;2024-01-06T05:10:40;5.10;;;1.50;;
59587;SDS011;45412;54.472;18.464;2024-01-06T05:13:28;5.10;;;1.40;;
59587;SDS011;45412;54.472;18.464;2024-01-06T05:16:15;6.40;;;1.40;;
59587;SDS011;45412;54.472;18.464;2024-01-06T05:19:04;5.30;;;1.50;;
59587;SDS011;45412;54.472;18.464;2024-01-06T05:21:52;7.40;;;2.70;;
59587;SDS011;45412;54.472;18.464;2024-01-06T05:24:39;10.20;;;2.60;;
59587;SDS011;45412;54.472;18.464;2024-01-06T05:27:27;9.40;;;3.10;;
59587;SDS011;45412;54.472;18.464;2024-01-06T05:30:15;11.90;;;3.90;;
59587;SDS011;45412;54.472;18.464;2024-01-06T05:33:03;13.70;;;4.40;;
59587;SDS011;45412;54.472;18.464;2024-01-06T05:35:51;13.10;;;4.40;;
59587;SDS011;45412;54.472;18.464;2024-01-06T05:38:39;10.00;;;3.20;;
59587;SDS011;45412;54.472;18.464;2024-01-06T05:41:27;7.70;;;2.20;;
59587;SDS011;45412;54.472;18.464;2024-01-06T05:44:15;7.40;;;2.00;;
59587;SDS011;45412;54.472;18.464;2024-01-06T05:47:03;6.50;;;1.90;;
59587;SDS011;45412;54.472;18.464;2024-01-06T05:49:51;8.50;;;2.60;;
59587;SDS011;45412;54.472;18.464;2024-01-06T05:52:39;9.10;;;3.30;;
59587;SDS011;45412;54.472;18.464;2024-01-06T05:55:26;10.30;;;3.70;;
59587;SDS011;45412;54.472;18.464;2024-01-06T05:58:14;7.00;;;2.90;;
59587;SDS011;45412;54.472;18.464;2024-01-06T06:01:02;8.20;;;2.30;;
59587;SDS011;45412;54.472;18.464;2024-01-06T06:03:50;6.70;;;2.30;;
59587;SDS011;45412;54.472;18.464;2024-01-06T06:06:39;6.10;;;2.00;;
59587;SDS011;45412;54.472;18.464;2024-01-06T06:09:27;5.70;;;1.50;;
59587;SDS011;45412;54.472;18.464;2024-01-06T06:12:16;6.70;;;1.80;;
59587;SDS011;45412;54.472;18.464;2024-01-06T06:15:05;6.30;;;1.70;;
59587;SDS011;45412;54.472;18.464;2024-01-06T06:17:54;6.10;;;1.50;;
59587;SDS011;45412;54.472;18.464;2024-01-06T06:20:41;5.30;;;1.50;;
59587;SDS011;45412;54.472;18.464;2024-01-06T06:23:31;5.50;;;1.30;;
59587;SDS011;45412;54.472;18.464;2024-01-06T06:26:19;4.40;;;1.30;;
59587;SDS011;45412;54.472;18.464;2024-01-06T06:29:06;6.60;;;1.50;;
59587;SDS011;45412;54.472;18.464;2024-01-06T06:31:54;6.40;;;1.60;;
59587;SDS011;45412;54.472;18.464;2024-01-06T06:34:42;6.50;;;1.60;;
59587;SDS011;45412;54.472;18.464;2024-01-06T06:37:30;6.50;;;2.00;;
59587;SDS011;45412;54.472;18.464;2024-01-06T06:40:19;7.10;;;1.60;;
59587;SDS011;45412;54.472;18.464;2024-01-06T06:43:07;8.60;;;1.90;;
59587;SDS011;45412;54.472;18.464;2024-01-06T06:45:55;5.60;;;1.60;;
59587;SDS011;45412;54.472;18.464;2024-01-06T06:48:43;6.70;;;1.80;;
59587;SDS011;45412;54.472;18.464;2024-01-06T06:51:31;7.10;;;1.40;;
59587;SDS011;45412;54.472;18.464;2024-01-06T06:54:19;6.00;;;1.40;;
59587;SDS011;45412;54.472;18.464;2024-01-06T06:57:07;4.70;;;1.20;;
59587;SDS011;45412;54.472;18.464;2024-01-06T06:59:54;5.40;;;1.40;;
59587;SDS011;45412;54.472;18.464;2024-01-06T07:02:42;6.10;;;1.70;;
59587;SDS011;45412;54.472;18.464;2024-01-06T07:05:30;5.70;;;1.30;;
59587;SDS011;45412;54.472;18.464;2024-01-06T07:08:18;6.20;;;1.40;;
59587;SDS011;45412;54.472;18.464;2024-01-06T07:11:06;5.30;;;1.60;;
59587;SDS011;45412;54.472;18.464;2024-01-06T07:13:54;4.90;;;1.40;;
59587;SDS011;45412;54.472;18.464;2024-01-06T07:16:41;6.00;;;1.60;;
59587;SDS011;45412;54.472;18.464;2024-01-06T07:19:31;5.80;;;1.50;;
59587;SDS011;45412;54.472;18.464;2024-01-06T07:22:20;5.00;;;1.50;;
59587;SDS011;45412;54.472;18.464;2024-01-06T07:25:08;6.70;;;1.40;;
59587;SDS011;45412;54.472;18.464;2024-01-06T07:27:56;5.70;;;1.70;;
59587;SDS011;45412;54.472;18.464;2024-01-06T07:30:44;5.60;;;1.60;;
59587;SDS011;45412;54.472;18.464;2024-01-06T07:33:31;5.00;;;1.50;;
59587;SDS011;45412;54.472;18.464;2024-01-06T07:36:19;4.70;;;1.30;;
59587;SDS011;45412;54.472;18.464;2024-01-06T07:39:08;5.10;;;1.40;;
59587;SDS011;45412;54.472;18.464;2024-01-06T07:41:56;7.00;;;1.50;;
59587;SDS011;45412;54.472;18.464;2024-01-06T07:44:44;6.20;;;1.60;;
59587;SDS011;45412;54.472;18.464;2024-01-06T07:47:32;5.10;;;1.30;;
59587;SDS011;45412;54.472;18.464;2024-01-06T07:50:21;4.90;;;1.40;;
59587;SDS011;45412;54.472;18.464;2024-01-06T07:53:09;6.50;;;1.70;;
59587;SDS011;45412;54.472;18.464;2024-01-06T07:55:56;5.90;;;1.60;;
59587;SDS011;45412;54.472;18.464;2024-01-06T07:58:44;5.70;;;1.80;;
59587;SDS011;45412;54.472;18.464;2024-01-06T08:01:32;5.70;;;1.70;;
59587;SDS011;45412;54.472;18.464;2024-01-06T08:04:20;4.70;;;1.20;;
59587;SDS011;45412;54.472;18.464;2024-01-06T08:07:08;5.50;;;1.50;;
59587;SDS011;45412;54.472;18.464;2024-01-06T08:09:56;5.50;;;1.40;;
59587;SDS011;45412;54.472;18.464;2024-01-06T08:12:44;4.80;;;1.40;;
59587;SDS011;45412;54.472;18.464;2024-01-06T08:15:31;4.70;;;1.20;;
59587;SDS011;45412;54.472;18.464;2024-01-06T08:18:20;5.40;;;1.50;;
59587;SDS011;45412;54.472;18.464;2024-01-06T08:21:09;5.60;;;1.30;;
59587;SDS011;45412;54.472;18.464;2024-01-06T08:23:56;5.70;;;1.30;;
59587;SDS011;45412;54.472;18.464;2024-01-06T08:26:44;5.70;;;1.90;;
59587;SDS011;45412;54.472;18.464;2024-01-06T08:29:33;4.70;;;1.40;;
59587;SDS011;45412;54.472;18.464;2024-01-06T08:32:20;5.60;;;1.40;;
59587;SDS011;45412;54.472;18.464;2024-01-06T08:35:09;5.80;;;1.60;;
59587;SDS011;45412;54.472;18.464;2024-01-06T08:37:57;5.70;;;1.60;;
59587;SDS011;45412;54.472;18.464;2024-01-06T08:40:44;6.00;;;1.30;;
59587;SDS011;45412;54.472;18.464;2024-01-06T08:43:35;7.40;;;2.20;;
59587;SDS011;45412;54.472;18.464;2024-01-06T08:46:23;7.80;;;2.30;;
59587;SDS011;45412;54.472;18.464;2024-01-06T08:49:11;8.30;;;2.90;;
59587;SDS011;45412;54.472;18.464;2024-01-06T08:51:59;8.20;;;2.10;;
59587;SDS011;45412;54.472;18.464;2024-01-06T08:54:47;7.30;;;2.40;;
59587;SDS011;45412;54.472;18.464;2024-01-06T08:57:37;12.80;;;5.00;;
59587;SDS011;45412;54.472;18.464;2024-01-06T09:00:25;6.30;;;2.40;;
59587;SDS011;45412;54.472;18.464;2024-01-06T09:03:13;8.00;;;2.70;;
59587;SDS011;45412;54.472;18.464;2024-01-06T09:06:01;7.90;;;2.10;;
59587;SDS011;45412;54.472;18.464;2024-01-06T09:08:49;7.60;;;2.60;;
59587;SDS011;45412;54.472;18.464;2024-01-06T09:11:36;8.40;;;1.70;;
59587;SDS011;45412;54.472;18.464;2024-01-06T09:14:25;7.70;;;2.00;;
59587;SDS011;45412;54.472;18.464;2024-01-06T09:17:13;6.70;;;1.90;;
59587;SDS011;45412;54.472;18.464;2024-01-06T09:20:02;8.40;;;2.50;;
59587;SDS011;45412;54.472;18.464;2024-01-06T09:22:50;8.00;;;2.20;;
59587;SDS011;45412;54.472;18.464;2024-01-06T09:25:38;8.60;;;2.40;;
59587;SDS011;45412;54.472;18.464;2024-01-06T09:28:27;8.20;;;2.00;;
59587;SDS011;45412;54.472;18.464;2024-01-06T09:31:15;6.70;;;2.10;;
59587;SDS011;45412;54.472;18.464;2024-01-06T09:34:03;8.00;;;3.10;;
59587;SDS011;45412;54.472;18.464;2024-01-06T09:36:53;8.00;;;2.40;;
59587;SDS011;45412;54.472;18.464;2024-01-06T09:39:42;7.30;;;2.10;;
59587;SDS011;45412;54.472;18.464;2024-01-06T09:42:30;8.20;;;2.70;;
59587;SDS011;45412;54.472;18.464;2024-01-06T09:45:17;7.20;;;2.00;;
59587;SDS011;45412;54.472;18.464;2024-01-06T09:48:12;8.10;;;2.20;;
59587;SDS011;45412;54.472;18.464;2024-01-06T09:51:02;6.50;;;1.80;;
59587;SDS011;45412;54.472;18.464;2024-01-06T09:54:01;7.40;;;2.00;;
59587;SDS011;45412;54.472;18.464;2024-01-06T09:56:55;5.70;;;1.60;;
59587;SDS011;45412;54.472;18.464;2024-01-06T09:59:44;6.00;;;1.40;;
59587;SDS011;45412;54.472;18.464;2024-01-06T10:02:32;6.90;;;2.00;;
59587;SDS011;45412;54.472;18.464;2024-01-06T10:05:19;7.40;;;2.40;;
59587;SDS011;45412;54.472;18.464;2024-01-06T10:08:08;8.50;;;2.60;;
59587;SDS011;45412;54.472;18.464;2024-01-06T10:10:56;7.40;;;2.10;;
59587;SDS011;45412;54.472;18.464;2024-01-06T10:13:44;6.30;;;1.70;;
59587;SDS011;45412;54.472;18.464;2024-01-06T10:16:33;9.30;;;1.90;;
59587;SDS011;45412;54.472;18.464;2024-01-06T10:19:23;6.90;;;1.90;;
59587;SDS011;45412;54.472;18.464;2024-01-06T10:22:11;6.50;;;1.70;;
59587;SDS011;45412;54.472;18.464;2024-01-06T10:24:59;6.20;;;1.60;;
59587;SDS011;45412;54.472;18.464;2024-01-06T10:27:47;5.70;;;1.60;;
59587;SDS011;45412;54.472;18.464;2024-01-06T10:30:34;7.90;;;1.70;;
59587;SDS011;45412;54.472;18.464;2024-01-06T10:33:26;6.50;;;1.80;;
59587;SDS011;45412;54.472;18.464;2024-01-06T10:36:15;6.40;;;1.60;;
59587;SDS011;45412;54.472;18.464;2024-01-06T10:39:04;6.80;;;1.80;;
59587;SDS011;45412;54.472;18.464;2024-01-06T10:41:55;7.70;;;1.90;;
59587;SDS011;45412;54.472;18.464;2024-01-06T10:44:44;6.40;;;2.00;;
59587;SDS011;45412;54.472;18.464;2024-01-06T10:47:35;6.40;;;1.90;;
59587;SDS011;45412;54.472;18.464;2024-01-06T10:50:24;7.10;;;2.10;;
59587;SDS011;45412;54.472;18.464;2024-01-06T10:53:15;6.50;;;1.90;;
59587;SDS011;45412;54.472;18.464;2024-01-06T10:56:05;5.30;;;1.50;;
59587;SDS011;45412;54.472;18.464;2024-01-06T10:58:56;6.90;;;1.70;;
59587;SDS011;45412;54.472;18.464;2024-01-06T11:01:44;4.70;;;1.40;;
59587;SDS011;45412;54.472;18.464;2024-01-06T11:04:34;4.80;;;1.40;;
59587;SDS011;45412;54.472;18.464;2024-01-06T11:07:24;9.20;;;2.30;;
59587;SDS011;45412;54.472;18.464;2024-01-06T11:10:16;9.10;;;2.70;;
59587;SDS011;45412;54.472;18.464;2024-01-06T11:13:14;10.60;;;3.00;;
59587;SDS011;45412;54.472;18.464;2024-01-06T11:16:08;9.70;;;3.20;;
59587;SDS011;45412;54.472;18.464;2024-01-06T11:18:55;7.70;;;2.40;;
59587;SDS011;45412;54.472;18.464;2024-01-06T11:21:43;7.60;;;2.10;;
59587;SDS011;45412;54.472;18.464;2024-01-06T11:24:36;6.90;;;1.60;;
59587;SDS011;45412;54.472;18.464;2024-01-06T11:27:25;7.10;;;1.90;;
59587;SDS011;45412;54.472;18.464;2024-01-06T11:30:23;6.50;;;2.00;;
59587;SDS011;45412;54.472;18.464;2024-01-06T11:33:12;10.10;;;2.60;;
59587;SDS011;45412;54.472;18.464;2024-01-06T11:36:01;12.10;;;3.40;;
59587;SDS011;45412;54.472;18.464;2024-01-06T11:38:55;9.90;;;3.10;;
59587;SDS011;45412;54.472;18.464;2024-01-06T11:41:49;10.00;;;3.10;;
59587;SDS011;45412;54.472;18.464;2024-01-06T11:44:40;10.10;;;3.00;;
59587;SDS011;45412;54.472;18.464;2024-01-06T11:47:32;9.40;;;2.70;;
59587;SDS011;45412;54.472;18.464;2024-01-06T11:50:21;8.00;;;2.20;;
59587;SDS011;45412;54.472;18.464;2024-01-06T11:53:09;8.30;;;2.20;;
59587;SDS011;45412;54.472;18.464;2024-01-06T11:55:59;8.40;;;1.80;;
59587;SDS011;45412;54.472;18.464;2024-01-06T11:58:48;5.90;;;1.80;;
59587;SDS011;45412;54.472;18.464;2024-01-06T12:01:39;12.10;;;2.40;;
59587;SDS011;45412;54.472;18.464;2024-01-06T12:04:28;9.20;;;2.30;;
59587;SDS011;45412;54.472;18.464;2024-01-06T12:07:17;11.90;;;2.40;;
59587;SDS011;45412;54.472;18.464;2024-01-06T12:10:07;6.80;;;1.60;;
59587;SDS011;45412;54.472;18.464;2024-01-06T12:13:03;7.60;;;1.90;;
59587;SDS011;45412;54.472;18.464;2024-01-06T12:15:52;6.10;;;1.70;;
59587;SDS011;45412;54.472;18.464;2024-01-06T12:18:40;6.20;;;1.50;;
59587;SDS011;45412;54.472;18.464;2024-01-06T12:21:28;7.70;;;2.00;;
59587;SDS011;45412;54.472;18.464;2024-01-06T12:24:16;5.60;;;1.80;;
59587;SDS011;45412;54.472;18.464;2024-01-06T12:27:08;6.30;;;1.60;;
59587;SDS011;45412;54.472;18.464;2024-01-06T12:30:00;9.00;;;1.90;;
59587;SDS011;45412;54.472;18.464;2024-01-06T12:32:49;5.90;;;1.90;;
59587;SDS011;45412;54.472;18.464;2024-01-06T12:35:40;8.30;;;1.80;;
59587;SDS011;45412;54.472;18.464;2024-01-06T12:38:29;6.20;;;1.90;;
59587;SDS011;45412;54.472;18.464;2024-01-06T12:41:17;6.30;;;1.50;;
59587;SDS011;45412;54.472;18.464;2024-01-06T12:44:05;6.20;;;1.90;;
59587;SDS011;45412;54.472;18.464;2024-01-06T12:46:54;10.90;;;2.30;;
59587;SDS011;45412;54.472;18.464;2024-01-06T12:49:42;8.10;;;2.40;;
59587;SDS011;45412;54.472;18.464;2024-01-06T12:52:31;9.90;;;2.70;;
59587;SDS011;45412;54.472;18.464;2024-01-06T12:55:19;9.90;;;2.30;;
59587;SDS011;45412;54.472;18.464;2024-01-06T12:58:07;8.90;;;1.80;;
59587;SDS011;45412;54.472;18.464;2024-01-06T13:00:55;8.30;;;2.10;;
59587;SDS011;45412;54.472;18.464;2024-01-06T13:03:44;8.90;;;2.50;;
59587;SDS011;45412;54.472;18.464;2024-01-06T13:06:33;7.50;;;1.90;;
59587;SDS011;45412;54.472;18.464;2024-01-06T13:09:22;6.80;;;1.80;;
59587;SDS011;45412;54.472;18.464;2024-01-06T13:12:11;8.80;;;2.10;;
59587;SDS011;45412;54.472;18.464;2024-01-06T13:14:58;7.60;;;2.00;;
59587;SDS011;45412;54.472;18.464;2024-01-06T13:17:47;6.40;;;1.80;;
59587;SDS011;45412;54.472;18.464;2024-01-06T13:20:37;7.90;;;2.20;;
59587;SDS011;45412;54.472;18.464;2024-01-06T13:23:28;8.20;;;2.10;;
59587;SDS011;45412;54.472;18.464;2024-01-06T13:26:16;8.30;;;1.80;;
59587;SDS011;45412;54.472;18.464;2024-01-06T13:29:03;9.90;;;2.50;;
59587;SDS011;45412;54.472;18.464;2024-01-06T13:31:51;8.60;;;2.20;;
59587;SDS011;45412;54.472;18.464;2024-01-06T13:34:41;8.00;;;2.30;;
59587;SDS011;45412;54.472;18.464;2024-01-06T13:37:31;8.40;;;2.00;;
59587;SDS011;45412;54.472;18.464;2024-01-06T13:40:19;7.60;;;1.90;;
59587;SDS011;45412;54.472;18.464;2024-01-06T13:43:07;6.90;;;1.70;;
59587;SDS011;45412;54.472;18.464;2024-01-06T13:45:56;6.30;;;1.80;;
59587;SDS011;45412;54.472;18.464;2024-01-06T13:48:44;9.10;;;2.40;;
59587;SDS011;45412;54.472;18.464;2024-01-06T13:51:32;12.30;;;2.80;;
59587;SDS011;45412;54.472;18.464;2024-01-06T13:54:20;12.30;;;2.80;;
59587;SDS011;45412;54.472;18.464;2024-01-06T13:57:08;10.60;;;2.60;;
59587;SDS011;45412;54.472;18.464;2024-01-06T13:59:57;9.30;;;2.30;;
59587;SDS011;45412;54.472;18.464;2024-01-06T14:02:45;8.50;;;2.20;;
59587;SDS011;45412;54.472;18.464;2024-01-06T14:05:34;7.50;;;2.00;;
59587;SDS011;45412;54.472;18.464;2024-01-06T14:08:22;10.00;;;2.40;;
59587;SDS011;45412;54.472;18.464;2024-01-06T14:11:11;12.30;;;3.20;;
59587;SDS011;45412;54.472;18.464;2024-01-06T14:13:59;11.30;;;3.30;;
59587;SDS011;45412;54.472;18.464;2024-01-06T14:16:48;10.90;;;3.20;;
59587;SDS011;45412;54.472;18.464;2024-01-06T14:19:35;9.70;;;3.30;;
59587;SDS011;45412;54.472;18.464;2024-01-06T14:22:24;13.10;;;3.90;;
59587;SDS011;45412;54.472;18.464;2024-01-06T14:25:15;12.00;;;4.20;;
59587;SDS011;45412;54.472;18.464;2024-01-06T14:28:06;11.00;;;4.10;;
59587;SDS011;45412;54.472;18.464;2024-01-06T14:30:54;13.10;;;5.20;;
59587;SDS011;45412;54.472;18.464;2024-01-06T14:33:42;11.00;;;4.00;;
59587;SDS011;45412;54.472;18.464;2024-01-06T14:36:30;11.90;;;4.00;;
59587;SDS011;45412;54.472;18.464;2024-01-06T14:39:18;14.20;;;5.00;;
59587;SDS011;45412;54.472;18.464;2024-01-06T14:42:09;17.90;;;5.60;;
59587;SDS011;45412;54.472;18.464;2024-01-06T14:44:56;13.70;;;5.00;;
59587;SDS011;45412;54.472;18.464;2024-01-06T14:47:44;11.20;;;3.70;;
59587;SDS011;45412;54.472;18.464;2024-01-06T14:50:37;10.30;;;3.30;;
59587;SDS011;45412;54.472;18.464;2024-01-06T14:53:25;8.90;;;2.70;;
59587;SDS011;45412;54.472;18.464;2024-01-06T14:56:15;9.60;;;3.60;;
59587;SDS011;45412;54.472;18.464;2024-01-06T14:59:03;11.70;;;3.70;;
59587;SDS011;45412;54.472;18.464;2024-01-06T15:01:54;12.50;;;3.90;;
59587;SDS011;45412;54.472;18.464;2024-01-06T15:04:42;11.90;;;3.00;;
59587;SDS011;45412;54.472;18.464;2024-01-06T15:07:31;8.20;;;2.80;;
59587;SDS011;45412;54.472;18.464;2024-01-06T15:10:24;6.90;;;2.40;;
59587;SDS011;45412;54.472;18.464;2024-01-06T15:13:11;9.60;;;2.50;;
59587;SDS011;45412;54.472;18.464;2024-01-06T15:16:01;8.90;;;2.30;;
59587;SDS011;45412;54.472;18.464;2024-01-06T15:18:51;7.50;;;2.20;;
59587;SDS011;45412;54.472;18.464;2024-01-06T15:21:39;8.80;;;2.20;;
59587;SDS011;45412;54.472;18.464;2024-01-06T15:24:27;7.40;;;2.70;;
59587;SDS011;45412;54.472;18.464;2024-01-06T15:27:17;6.30;;;1.90;;
59587;SDS011;45412;54.472;18.464;2024-01-06T15:30:05;6.30;;;1.90;;
59587;SDS011;45412;54.472;18.464;2024-01-06T15:32:56;6.70;;;2.00;;
59587;SDS011;45412;54.472;18.464;2024-01-06T15:35:45;7.60;;;1.80;;
59587;SDS011;45412;54.472;18.464;2024-01-06T15:38:33;8.60;;;2.50;;
59587;SDS011;45412;54.472;18.464;2024-01-06T15:41:22;6.60;;;2.20;;
59587;SDS011;45412;54.472;18.464;2024-01-06T15:44:11;8.10;;;2.10;;
59587;SDS011;45412;54.472;18.464;2024-01-06T15:46:59;6.00;;;2.10;;
59587;SDS011;45412;54.472;18.464;2024-01-06T15:49:50;6.70;;;2.10;;
59587;SDS011;45412;54.472;18.464;2024-01-06T15:52:41;8.50;;;2.10;;
59587;SDS011;45412;54.472;18.464;2024-01-06T15:55:31;7.90;;;2.20;;
59587;SDS011;45412;54.472;18.464;2024-01-06T15:58:19;9.80;;;2.40;;
59587;SDS011;45412;54.472;18.464;2024-01-06T16:01:08;6.10;;;1.60;;
59587;SDS011;45412;54.472;18.464;2024-01-06T16:03:57;7.20;;;2.10;;
59587;SDS011;45412;54.472;18.464;2024-01-06T16:06:48;6.80;;;1.90;;
59587;SDS011;45412;54.472;18.464;2024-01-06T16:09:38;8.20;;;1.90;;
59587;SDS011;45412;54.472;18.464;2024-01-06T16:12:27;8.00;;;2.00;;
59587;SDS011;45412;54.472;18.464;2024-01-06T16:15:17;6.70;;;2.10;;
59587;SDS011;45412;54.472;18.464;2024-01-06T16:18:08;8.80;;;2.40;;
59587;SDS011;45412;54.472;18.464;2024-01-06T16:20:57;8.00;;;2.40;;
59587;SDS011;45412;54.472;18.464;2024-01-06T16:23:46;8.70;;;2.50;;
59587;SDS011;45412;54.472;18.464;2024-01-06T16:26:34;7.90;;;2.40;;
59587;SDS011;45412;54.472;18.464;2024-01-06T16:29:21;8.40;;;2.30;;
59587;SDS011;45412;54.472;18.464;2024-01-06T16:32:11;6.30;;;1.90;;
59587;SDS011;45412;54.472;18.464;2024-01-06T16:34:58;8.80;;;2.60;;
59587;SDS011;45412;54.472;18.464;2024-01-06T16:37:46;7.50;;;2.40;;